createdAt,value
2023-06-11T00:02:36.579Z,2.90
2023-06-11T00:06:44.418Z,3.00
2023-06-11T00:10:51.277Z,3.00
2023-06-11T00:14:58.120Z,3.50
2023-06-11T00:19:05.790Z,3.00
2023-06-11T00:23:12.766Z,3.20
2023-06-11T00:27:19.663Z,3.50
2023-06-11T00:31:26.720Z,3.10
2023-06-11T00:35:33.608Z,2.80
2023-06-11T00:39:40.586Z,2.90
2023-06-11T00:43:47.476Z,3.10
2023-06-11T00:47:54.588Z,3.00
2023-06-11T00:52:01.777Z,2.80
2023-06-11T00:56:08.912Z,2.70
2023-06-11T01:00:16.785Z,2.40
2023-06-11T01:04:24.790Z,2.20
2023-06-11T01:08:34.345Z,2.60
2023-06-11T01:12:41.713Z,4.00
2023-06-11T01:16:54.241Z,2.20
2023-06-11T01:21:05.671Z,2.20
2023-06-11T01:25:32.760Z,2.50
2023-06-11T01:29:46.628Z,2.90
2023-06-11T01:33:54.302Z,2.70
2023-06-11T01:38:01.275Z,2.20
2023-06-11T01:42:09.336Z,2.90
2023-06-11T01:46:16.396Z,2.30
2023-06-11T01:50:23.739Z,2.50
2023-06-11T01:54:31.145Z,2.30
2023-06-11T01:58:38.481Z,2.10
2023-06-11T02:02:48.733Z,2.20
2023-06-11T02:06:56.063Z,2.10
2023-06-11T02:11:03.752Z,1.70
2023-06-11T02:15:11.880Z,2.10
2023-06-11T02:19:18.963Z,2.40
2023-06-11T02:23:25.842Z,2.20
2023-06-11T02:27:32.706Z,1.80
2023-06-11T02:31:39.749Z,2.00
2023-06-11T02:35:46.774Z,1.80
2023-06-11T02:40:09.740Z,1.90
2023-06-11T02:44:16.706Z,1.80
2023-06-11T02:48:23.569Z,1.90
2023-06-11T02:52:51.180Z,1.80
2023-06-11T02:57:13.473Z,1.70
2023-06-11T03:01:44.549Z,1.90
2023-06-11T03:06:03.170Z,1.90
2023-06-11T03:10:13.527Z,1.60
2023-06-11T03:14:38.052Z,1.70
2023-06-11T03:18:45.751Z,1.50
2023-06-11T03:22:52.745Z,1.90
2023-06-11T03:27:10.036Z,1.90
2023-06-11T03:31:49.526Z,1.80
2023-06-11T03:36:19.695Z,1.60
2023-06-11T03:40:55.870Z,1.70
2023-06-11T03:45:11.912Z,2.10
2023-06-11T03:49:37.688Z,1.90
2023-06-11T03:54:02.168Z,1.60
2023-06-11T03:58:09.120Z,1.70
2023-06-11T04:02:16.111Z,1.80
2023-06-11T04:06:37.733Z,1.80
2023-06-11T04:11:21.734Z,2.00
2023-06-11T04:15:28.685Z,1.90
2023-06-11T04:19:35.590Z,2.30
2023-06-11T04:23:46.382Z,2.00
2023-06-11T04:32:03.242Z,2.10
2023-06-11T04:36:15.269Z,1.50
2023-06-11T04:40:57.484Z,1.80
2023-06-11T04:45:14.266Z,1.60
2023-06-11T04:53:46.666Z,1.90
2023-06-11T04:57:55.508Z,2.20
2023-06-11T05:02:04.482Z,1.90
2023-06-11T05:06:14.803Z,1.80
2023-06-11T05:10:33.954Z,2.10
2023-06-11T05:14:41.001Z,2.00
2023-06-11T05:19:19.206Z,1.80
2023-06-11T05:23:34.869Z,2.20
2023-06-11T05:27:55.693Z,2.00
2023-06-11T05:32:11.818Z,1.60
2023-06-11T05:36:51.588Z,1.90
2023-06-11T05:41:23.982Z,1.90
2023-06-11T05:45:48.039Z,1.90
2023-06-11T05:54:36.700Z,1.90
2023-06-11T05:58:43.555Z,1.60
2023-06-11T06:02:50.495Z,2.10
2023-06-11T06:07:05.272Z,1.80
2023-06-11T06:20:47.600Z,2.10
2023-06-11T06:25:18.887Z,1.90
2023-06-11T06:29:57.189Z,1.70
2023-06-11T06:34:04.125Z,1.90
2023-06-11T06:38:11.009Z,1.90
2023-06-11T06:42:22.416Z,1.80
2023-06-11T06:46:29.307Z,2.30
2023-06-11T06:50:49.204Z,2.00
2023-06-11T06:54:56.333Z,1.80
2023-06-11T06:59:15.558Z,1.80
2023-06-11T07:03:22.546Z,2.00
2023-06-11T07:07:29.570Z,1.90
2023-06-11T07:11:36.738Z,1.90
2023-06-11T07:15:43.679Z,1.80
2023-06-11T07:19:51.452Z,2.10
2023-06-11T07:24:00.255Z,1.70
2023-06-11T07:28:08.081Z,1.80
2023-06-11T07:32:15.012Z,2.10
2023-06-11T07:36:42.601Z,1.90
2023-06-11T07:40:58.496Z,1.60
2023-06-11T07:49:31.101Z,1.60
2023-06-11T07:53:38.426Z,1.90
2023-06-11T07:57:52.645Z,1.30
2023-06-11T08:02:04.504Z,1.70
2023-06-11T08:06:25.536Z,1.60
2023-06-11T08:14:53.563Z,1.50
2023-06-11T08:19:00.478Z,1.70
2023-06-11T08:23:18.572Z,1.70
2023-06-11T08:27:25.287Z,1.40
2023-06-11T08:31:45.009Z,1.70
2023-06-11T08:35:51.836Z,1.60
2023-06-11T08:40:13.206Z,2.10
2023-06-11T08:48:48.223Z,1.80
2023-06-11T08:52:55.106Z,1.90
2023-06-11T08:57:09.828Z,2.20
2023-06-11T09:01:16.722Z,1.90
2023-06-11T09:05:23.780Z,1.60
2023-06-11T09:09:30.686Z,1.90
2023-06-11T09:13:37.418Z,2.20
2023-06-11T09:17:48.665Z,1.90
2023-06-11T09:21:57.338Z,1.90
2023-06-11T09:26:22.230Z,2.00
2023-06-11T09:30:29.501Z,2.20
2023-06-11T09:34:46.260Z,2.70
2023-06-11T09:39:11.535Z,2.00
2023-06-11T09:43:20.153Z,2.10
2023-06-11T09:47:27.944Z,2.10
2023-06-11T09:51:40.393Z,2.00
2023-06-11T10:00:09.146Z,1.90
2023-06-11T10:04:16.057Z,2.20
2023-06-11T10:08:36.693Z,1.90
2023-06-11T10:12:57.331Z,1.90
2023-06-11T10:17:11.371Z,1.70
2023-06-11T10:21:51.066Z,1.70
2023-06-11T10:26:16.741Z,2.20
2023-06-11T10:30:38.356Z,1.80
2023-06-11T10:35:02.863Z,1.90
2023-06-11T10:39:11.000Z,2.30
2023-06-11T10:43:19.886Z,1.80
2023-06-11T10:47:44.774Z,2.20
2023-06-11T10:52:09.300Z,2.00
2023-06-11T10:56:31.641Z,2.40
2023-06-11T11:00:57.256Z,2.20
2023-06-11T11:05:04.417Z,1.90
2023-06-11T11:09:11.351Z,2.40
2023-06-11T11:13:36.844Z,2.20
2023-06-11T11:17:58.057Z,1.50
2023-06-11T11:22:05.286Z,2.60
2023-06-11T11:26:19.428Z,2.40
2023-06-11T11:30:40.804Z,2.70
2023-06-11T11:34:47.998Z,2.60
2023-06-11T11:38:55.523Z,2.30
2023-06-11T11:43:23.168Z,2.50
2023-06-11T11:47:53.721Z,2.50
2023-06-11T11:52:07.826Z,2.90
2023-06-11T11:56:14.926Z,2.50
2023-06-11T12:00:29.087Z,2.50
2023-06-11T12:04:41.368Z,2.30
2023-06-11T12:09:12.659Z,2.70
2023-06-11T12:13:29.133Z,2.30
2023-06-11T12:17:36.977Z,1.90
2023-06-11T12:21:43.928Z,2.80
2023-06-11T12:25:54.503Z,2.60
2023-06-11T12:30:02.061Z,2.70
2023-06-11T12:34:11.342Z,2.50
2023-06-11T12:38:19.758Z,2.60
2023-06-11T12:42:28.684Z,2.60
2023-06-11T13:00:39.334Z,2.70
2023-06-11T13:05:09.825Z,2.80
2023-06-11T13:09:32.407Z,3.30
2023-06-11T13:14:19.085Z,3.30
2023-06-11T13:18:29.534Z,3.80
2023-06-11T13:27:33.532Z,3.60
2023-06-11T13:32:20.206Z,5.00
2023-06-11T13:36:32.790Z,6.00
2023-06-11T13:44:56.537Z,3.20
2023-06-11T13:49:03.647Z,3.10
2023-06-11T13:53:22.476Z,3.40
2023-06-11T14:06:47.560Z,4.20
2023-06-11T14:10:55.784Z,4.00
2023-06-11T14:19:15.923Z,5.70
2023-06-11T14:23:22.860Z,7.30
2023-06-11T14:27:36.769Z,4.90
2023-06-11T14:32:00.779Z,4.00
2023-06-11T14:36:08.610Z,4.10
2023-06-11T14:40:15.895Z,4.30
2023-06-11T14:44:26.561Z,3.50
2023-06-11T14:48:33.506Z,3.70
2023-06-11T14:52:40.418Z,3.30
2023-06-11T14:57:14.273Z,3.20
2023-06-11T15:01:24.298Z,3.10
2023-06-11T15:10:20.596Z,2.10
2023-06-11T15:14:27.680Z,7.70
2023-06-11T15:18:34.728Z,3.60
2023-06-11T15:22:47.127Z,2.70
2023-06-11T15:26:54.245Z,4.30
2023-06-11T15:31:13.940Z,3.90
2023-06-11T15:35:21.008Z,3.80
2023-06-11T15:39:28.280Z,4.90
2023-06-11T15:43:46.524Z,4.30
2023-06-11T15:52:21.056Z,4.70
2023-06-11T15:56:27.958Z,4.00
2023-06-11T16:00:42.948Z,7.20
2023-06-11T16:13:43.829Z,5.60
2023-06-11T16:17:50.929Z,6.40
2023-06-11T16:22:03.693Z,2.90
2023-06-11T16:30:36.157Z,5.00
2023-06-11T16:34:43.164Z,2.40
2023-06-11T16:39:21.812Z,2.90
2023-06-11T16:48:23.595Z,2.70
2023-06-11T16:56:46.158Z,3.10
2023-06-11T17:00:56.170Z,2.80
2023-06-11T17:05:15.737Z,2.40
2023-06-11T17:09:22.667Z,2.80
2023-06-11T17:13:29.589Z,3.40
2023-06-11T17:17:59.419Z,2.70
2023-06-11T17:22:09.598Z,2.30
2023-06-11T17:26:17.617Z,2.50
2023-06-11T17:30:40.170Z,2.90
2023-06-11T17:34:48.363Z,3.30
2023-06-11T17:39:04.593Z,2.80
2023-06-11T17:43:11.562Z,2.70
2023-06-11T17:47:18.904Z,3.00
2023-06-11T17:51:30.808Z,2.50
2023-06-11T17:55:40.883Z,2.50
2023-06-11T17:59:56.468Z,2.60
2023-06-11T18:04:09.698Z,2.60
2023-06-11T18:08:19.646Z,2.30
2023-06-11T18:12:26.720Z,2.50
2023-06-11T18:16:34.717Z,2.90
2023-06-11T18:21:01.999Z,2.80
2023-06-11T18:25:14.659Z,2.80
2023-06-11T22:41:14.162Z,3.30
2023-06-11T22:45:21.201Z,3.40
2023-06-11T22:49:29.270Z,4.00
2023-06-11T22:53:36.576Z,3.70
2023-06-11T22:57:43.398Z,4.00
2023-06-11T23:01:50.975Z,3.60
2023-06-11T23:05:57.876Z,3.50
2023-06-11T23:10:04.912Z,2.10
2023-06-11T23:14:13.686Z,4.30
2023-06-11T23:18:20.600Z,3.70
2023-06-11T23:22:27.501Z,3.20
2023-06-11T23:26:34.418Z,3.50
2023-06-11T23:30:41.984Z,3.90
2023-06-11T23:34:50.192Z,3.60
2023-06-11T23:38:57.444Z,3.30
2023-06-11T23:43:04.289Z,3.10
2023-06-11T23:47:11.358Z,3.20
2023-06-11T23:51:21.138Z,3.30
2023-06-11T23:55:28.021Z,3.30
2023-06-11T23:59:34.974Z,3.30
